This is the latest recevied weather packets stored in our database for station/object HB9HJL-11. If no packets are shown the sender has not sent any weather packets the latest 10 day(s).
| Time | Temp. | Humidity | Pressure | Rain* | Wind** | Luminosity | Snow |
|---|---|---|---|---|---|---|---|
| 1777273329 | 12.22° C | 58% | 948 hPa | - | - | - | - |
| 1777272429 | 10.56° C | 61% | 949 hPa | - | - | - | - |
| 1777271529 | 9.44° C | 60% | 947 hPa | - | - | - | - |
| 1777270629 | 9.44° C | 63% | 950 hPa | - | - | - | - |
| 1777269729 | 7.78° C | 65% | 951 hPa | - | - | - | - |
| 1777268828 | 7.78° C | 65% | 951 hPa | - | - | - | - |
| 1777267928 | 6.11° C | 68% | 952 hPa | - | - | - | - |
| 1777267028 | 6.11° C | 70% | 953 hPa | - | - | - | - |
| 1777266128 | 5° C | 72% | 954 hPa | - | - | - | - |
| 1777265228 | 4.44° C | 72% | 954 hPa | - | - | - | - |
| 1777264328 | 4.44° C | 72% | 954 hPa | - | - | - | - |
| 1777263428 | 4.44° C | 71% | 954 hPa | - | - | - | - |
| 1777262527 | 4.44° C | 70% | 953 hPa | - | - | - | - |
| 1777261627 | 5° C | 69% | 953 hPa | - | - | - | - |
| 1777260727 | 5° C | 68% | 953 hPa | - | - | - | - |
| 1777259827 | 5.56° C | 68% | 953 hPa | - | - | - | - |
| 1777258927 | 5.56° C | 67% | 953 hPa | - | - | - | - |
| 1777258027 | 6.11° C | 66% | 953 hPa | - | - | - | - |
| 1777257127 | 6.11° C | 66% | 952 hPa | - | - | - | - |
| 1777256227 | 6.11° C | 64% | 952 hPa | - | - | - | - |
| 1777255327 | 6.67° C | 64% | 952 hPa | - | - | - | - |
| 1777254427 | 6.67° C | 63% | 952 hPa | - | - | - | - |
| 1777253526 | 6.67° C | 63% | 952 hPa | - | - | - | - |
| 1777252626 | 7.22° C | 63% | 953 hPa | - | - | - | - |
| 1777251726 | 7.78° C | 60% | 952 hPa | - | - | - | - |
* Rain since midnight (hover to see other rain measurements)
** Current wind speed in m/s (hover to see current wind gust speed)